Flight Track Log - Related Links

Times and Time Zones

All times are in EDT time to prevent confusion due to time zone crossing. See the BOE440 flight status page for this flight to view local times or setup timezone preferences in your user account.

Time Position Orientation Groundspeed Altitude Reporting Facility
EDT Latitude Longitude Course Direction KTS MPH feet Rate Location/Type
Fri 12:10:07 PM 47.7709 -122.2833 359° North  Level FlightAware Approximate
Fri 12:11:56 PM 47.8894 -122.2853 181° South 154 177 1,600  Level Seattle Center
Fri 12:12:08 PM 47.8781 -122.2856 172° South 169 194 2,300 2,066 Climbing Seattle Center
Fri 12:12:57 PM 47.8411 -122.2781 121° Southeast 174 200 3,700 1,714 Climbing Seattle Center
Fri 12:12:57 PM 47.8394 -122.2739 139° Southeast 203 234 3,700 1,475 Level Seattle Center
Fri 12:13:58 PM 47.7878 -122.2061 138° Southeast 260 299 5,200 2,361 Climbing Seattle Center
Fri 12:14:59 PM 47.7281 -122.1253 138° Southeast 269 310 8,500 2,115 Climbing Seattle Center
Fri 12:16:00 PM 47.6686 -122.0444 138° Southeast 285 328 9,500 1,475 Climbing Seattle Center
Fri 12:17:01 PM 47.6097 -121.9647 137° Southeast 309 356 11,500 2,000 Climbing Seattle Center
Fri 12:18:03 PM 47.5328 -121.8592 134° Southeast 377 434 13,600 2,488 Climbing Seattle Center
Fri 12:19:04 PM 47.4539 -121.7378 95° East 410 472 16,600 2,508 Climbing Seattle Center
Fri 12:20:05 PM 47.4439 -121.5556 88° East 477 549 18,700 2,508 Climbing Seattle Center
Fri 12:21:06 PM 47.4500 -121.3153 88° East 487 560 21,700 2,459 Climbing Seattle Center
Fri 12:22:07 PM 47.4556 -121.1028 88° East 512 589 23,700 1,268 Climbing Seattle Center
Fri 12:23:09 PM 47.4608 -120.8897 88° East 529 609 24,300 1,268 Climbing Seattle Center
Fri 12:24:10 PM 47.4644 -120.6831 88° East 532 612 26,300 1,574 Climbing Seattle Center
Fri 12:25:11 PM 47.4694 -120.4567 89° East 547 629 27,500 1,525 Climbing Seattle Center
Fri 12:26:12 PM 47.4728 -120.2250 88° East 561 646 29,400 2,098 Climbing Seattle Center
Fri 12:27:14 PM 47.4775 -119.9403 89° East 576 663 31,800 2,146 Climbing Seattle Center
Fri 12:28:15 PM 47.4792 -119.7039 89° East 577 664 33,800 1,574 Climbing Seattle Center
Fri 12:29:16 PM 47.4825 -119.4681 89° East 577 664 35,000 590 Climbing Seattle Center
Fri 12:30:17 PM 47.4844 -119.2325 90° East 575 662 35,000 -49 Level Seattle Center
Fri 12:31:19 PM 47.4850 -118.9994 89° East 571 657 34,900 49 Descending Seattle Center
Fri 12:32:20 PM 47.4864 -118.7647 90° East 572 658 35,100 787 Climbing Seattle Center
Fri 12:33:21 PM 47.4872 -118.5294 90° East 574 661 36,500 934 Climbing Seattle Center
Fri 12:34:22 PM 47.4869 -118.2931 90° East 577 664 37,000 244 Climbing Seattle Center
Fri 12:35:24 PM 47.4872 -118.0547 90° East 580 667 37,000  Level Seattle Center
Fri 12:36:25 PM 47.4861 -117.8175 90° East 580 667 37,000  Level Seattle Center
Fri 12:37:26 PM 47.4844 -117.5347 90° East 577 664 37,000  Level Seattle Center
Fri 12:38:27 PM 47.4831 -117.2986 91° East 580 667 37,000  Level Seattle Center
Fri 12:39:29 PM 47.4794 -117.0739 90° East 583 671 37,000 -49 Level Seattle Center
Fri 12:40:30 PM 47.4781 -116.8364 91° East 586 674 36,900  Descending Seattle Center
Fri 12:41:31 PM 47.4750 -116.6039 91° East 576 663 37,000 49 Climbing Seattle Center
Fri 12:42:32 PM 47.4714 -116.3219 92° East 574 661 37,000  Level Seattle Center
Fri 12:43:34 PM 47.4658 -116.0900 92° East 571 657 37,000  Level Seattle Center
Fri 12:44:35 PM 47.4606 -115.8561 91° East 572 658 37,000 -49 Level Seattle Center
Fri 12:45:36 PM 47.4564 -115.6208 89° East 570 656 36,900  Descending Seattle Center
Fri 12:46:37 PM 47.4594 -115.3850 88° East 574 661 37,000 49 Climbing Seattle Center
Fri 12:47:39 PM 47.4633 -115.1528 89° East 574 661 37,000  Level Seattle Center
Fri 12:48:40 PM 47.4664 -114.9186 89° East 574 661 37,000  Level Seattle Center
Fri 12:49:41 PM 47.4681 -114.6850 89° East 573 659 37,000  Level Seattle Center
Fri 12:50:42 PM 47.4694 -114.4517 89° East 574 661 37,000 -50 Level Seattle Center
Fri 12:51:41 PM 47.4717 -114.2178 90° East 575 662 36,900 -50 Descending Salt Lake Center
Fri 12:52:43 PM 47.4719 -113.9375 90° East 575 662 36,900 48 Level Salt Lake Center
Fri 12:53:45 PM 47.4728 -113.7025 90° East 574 661 37,000 48 Climbing Salt Lake Center
Fri 12:54:47 PM 47.4719 -113.4633 90° East 579 666 37,000 -48 Level Salt Lake Center
Fri 12:55:49 PM 47.4711 -113.2264 90° East 579 666 36,900  Descending Salt Lake Center
Fri 12:56:51 PM 47.4697 -112.9886 90° East 580 667 37,000 48 Climbing Salt Lake Center
Fri 12:57:53 PM 47.4692 -112.7333 91° East 582 670 37,000  Level Salt Lake Center
Fri 12:58:55 PM 47.4672 -112.4944 91° East 584 672 37,000 -48 Level Salt Lake Center
Fri 12:59:58 PM 47.4636 -112.2575 91° East 582 670 36,900  Descending Salt Lake Center
Fri 01:01:00 PM 47.4606 -111.9717 92° East 582 670 37,000 48 Climbing Salt Lake Center
Fri 01:02:02 PM 47.4556 -111.7344 91° East 582 670 37,000  Level Salt Lake Center
Fri 01:03:04 PM 47.4514 -111.4989 92° East 583 671 37,000  Level Salt Lake Center
Fri 01:04:06 PM 47.4464 -111.2653 93° East 584 672 37,000  Level Salt Lake Center
Fri 01:05:08 PM 47.4367 -110.9817 93° East 583 671 37,000  Level Salt Lake Center
Fri 01:06:10 PM 47.4278 -110.7472 92° East 585 673 37,000  Level Salt Lake Center
Fri 01:07:12 PM 47.4208 -110.5108 94° East 583 671 37,000  Level Salt Lake Center
Fri 01:08:14 PM 47.4106 -110.2733 93° East 582 670 37,000 -48 Level Salt Lake Center
Fri 01:09:16 PM 47.4019 -110.0364 94° East 581 669 36,900  Descending Salt Lake Center
Fri 01:10:18 PM 47.3892 -109.7506 94° East 583 671 37,000 48 Climbing Salt Lake Center
Fri 01:11:20 PM 47.3781 -109.5125 94° East 585 673 37,000  Level Salt Lake Center
Fri 01:12:22 PM 47.3667 -109.2753 94° East 583 671 37,000  Level Salt Lake Center
Fri 01:13:24 PM 47.3547 -109.0383 94° East 584 672 37,000 -48 Level Salt Lake Center
Fri 01:14:26 PM 47.3431 -108.8014 94° East 584 672 36,900  Descending Salt Lake Center
Fri 01:15:28 PM 47.3311 -108.5606 94° East 586 674 37,000  Climbing Salt Lake Center
Fri 01:16:30 PM 47.3156 -108.2756 95° East 584 672 36,900  Descending Salt Lake Center
Fri 01:17:32 PM 47.3022 -108.0372 96° East 585 673 37,000 48 Climbing Salt Lake Center
Fri 01:18:34 PM 47.2867 -107.8086 96° East 585 673 37,000  Level Salt Lake Center
Fri 01:19:36 PM 47.2683 -107.5439 95° East 584 672 37,000  Level Salt Lake Center
Fri 01:20:38 PM 47.2539 -107.3150 96° East 585 673 37,000  Level Salt Lake Center
Fri 01:21:40 PM 47.2361 -107.0489 96° East 586 674 37,000  Level Salt Lake Center
Fri 01:22:42 PM 47.2206 -106.8217 96° East 584 672 37,000  Level Salt Lake Center
Fri 01:24:46 PM 47.1856 -106.3308 97° East 582 670 37,000  Level Salt Lake Center
Fri 01:25:48 PM 47.1678 -106.1044 97° East 582 670 37,000  Level Salt Lake Center
Fri 01:26:50 PM 47.1492 -105.8694 97° East 582 670 37,000  Level Salt Lake Center
Fri 01:27:52 PM 47.1264 -105.5875 97° East 581 669 37,000  Level Salt Lake Center
Fri 01:28:54 PM 47.1069 -105.3503 97° East 583 671 37,000  Level Salt Lake Center
Fri 01:29:56 PM 47.0872 -105.1178 97° East 583 671 37,000  Level Salt Lake Center
Fri 01:30:58 PM 47.0672 -104.8828 97° East 584 672 37,000  Level Salt Lake Center
Fri 01:32:00 PM 47.0461 -104.6475 98° East 585 673 37,000  Level Salt Lake Center
Fri 01:33:02 PM 47.0200 -104.3656 98° East 586 674 37,000  Level Salt Lake Center
Fri 01:34:04 PM 46.9969 -104.1328 98° East 585 673 37,000  Level Salt Lake Center
Fri 01:35:06 PM 46.9736 -103.8994 98° East 585 673 37,000  Level Salt Lake Center
Fri 01:36:08 PM 46.9500 -103.6664 98° East 585 673 37,000  Level Salt Lake Center
Fri 01:37:10 PM 46.9278 -103.4331 98° East 585 673 37,000  Level Salt Lake Center
Fri 01:38:13 PM 46.8994 -103.1575 99° East 582 670 37,000  Level Salt Lake Center
Fri 01:39:15 PM 46.8753 -102.9297 103° East 578 665 37,000  Level Salt Lake Center
Fri 01:40:17 PM 46.8383 -102.7047 114° Southeast 577 664 37,000  Level Salt Lake Center
Fri 01:40:29 PM 46.8261 -102.6642 114° Southeast 575 662 37,000  Level Minneapolis Center
Fri 01:41:29 PM 46.7597 -102.4489 113° Southeast 575 662 37,000  Level Minneapolis Center
Fri 01:42:29 PM 46.6950 -102.2317 114° Southeast 575 662 37,000  Level Minneapolis Center
Fri 01:43:29 PM 46.6297 -102.0208 114° Southeast 575 662 37,000  Level Minneapolis Center
Fri 01:44:29 PM 46.5639 -101.8106 114° Southeast 575 662 37,000  Level Minneapolis Center
Fri 01:45:29 PM 46.4994 -101.6042 114° Southeast 575 662 37,000  Level Minneapolis Center
Fri 01:46:29 PM 46.4347 -101.3981 114° Southeast 570 656 37,000  Level Minneapolis Center
Fri 01:47:29 PM 46.3697 -101.1894 115° Southeast 570 656 37,000  Level Minneapolis Center
Fri 01:48:29 PM 46.3022 -100.9811 114° Southeast 570 656 37,000  Level Minneapolis Center
Fri 01:49:29 PM 46.2367 -100.7706 116° Southeast 570 656 37,000  Level Minneapolis Center
Fri 01:50:29 PM 46.1700 -100.5722 115° Southeast 569 655 37,000  Level Minneapolis Center
Fri 01:51:29 PM 46.1017 -100.3625 115° Southeast 569 655 37,000  Level Minneapolis Center
Fri 01:52:29 PM 46.0328 -100.1531 116° Southeast 574 661 37,000  Level Minneapolis Center
Fri 01:53:29 PM 45.9653 -99.9503 115° Southeast 574 661 37,000  Level Minneapolis Center
Fri 01:54:29 PM 45.8978 -99.7422 115° Southeast 574 661 37,000  Level Minneapolis Center
Fri 01:55:29 PM 45.8297 -99.5375 117° Southeast 574 661 37,000  Level Minneapolis Center
Fri 01:56:29 PM 45.7572 -99.3297 117° Southeast 574 661 37,000  Level Minneapolis Center
Fri 01:57:29 PM 45.6844 -99.1228 117° Southeast 574 661 37,000  Level Minneapolis Center
Fri 01:58:29 PM 45.6056 -98.9008 116° Southeast 574 661 37,000  Level Minneapolis Center
Fri 01:59:29 PM 45.5342 -98.6892 117° Southeast 574 661 37,000  Level Minneapolis Center
Fri 02:00:29 PM 45.4622 -98.4867 107° East 579 666 37,000  Level Minneapolis Center
Fri 02:01:29 PM 45.4156 -98.2664 94° East 572 658 37,000  Level Minneapolis Center
Fri 02:02:29 PM 45.4058 -98.0497 93° East 556 640 37,000  Level Minneapolis Center
Fri 02:03:29 PM 45.3981 -97.8211 93° East 551 634 37,000  Level Minneapolis Center
Fri 02:04:29 PM 45.3911 -97.6194 94° East 556 640 37,000  Level Minneapolis Center
Fri 02:05:29 PM 45.3803 -97.4028 93° East 562 647 37,000  Level Minneapolis Center
Fri 02:06:29 PM 45.3731 -97.1836 93° East 556 640 37,000  Level Minneapolis Center
Fri 02:07:29 PM 45.3636 -96.9642 94° East 556 640 37,000  Level Minneapolis Center
Fri 02:08:29 PM 45.3533 -96.7478 93° East 556 640 37,000 700 Level Minneapolis Center
Fri 02:09:29 PM 45.3433 -96.5136 94° East 556 640 38,400 1,000 Climbing Minneapolis Center
Fri 02:10:29 PM 45.3325 -96.2944 94° East 551 634 39,000 300 Climbing Minneapolis Center
Fri 02:11:29 PM 45.3231 -96.0814 95° East 551 634 39,000  Level Minneapolis Center
Fri 02:12:29 PM 45.3092 -95.8625 93° East 551 634 39,000  Level Minneapolis Center
Fri 02:13:29 PM 45.3011 -95.6525 95° East 546 628 39,000  Level Minneapolis Center
Fri 02:14:29 PM 45.2881 -95.4600 95° East 546 628 39,000  Level Minneapolis Center
Fri 02:15:29 PM 45.2747 -95.2503 95° East 541 623 39,000  Level Minneapolis Center
Fri 02:16:29 PM 45.2614 -95.0344 95° East 536 617 39,000  Level Minneapolis Center
Fri 02:17:29 PM 45.2475 -94.8217 96° East 541 623 39,000  Level Minneapolis Center
Fri 02:18:29 PM 45.2314 -94.5944 95° East 541 623 39,000  Level Minneapolis Center
Fri 02:19:29 PM 45.2189 -94.3819 96° East 541 623 39,000  Level Minneapolis Center
Fri 02:20:29 PM 45.2036 -94.1694 96° East 541 623 39,000  Level Minneapolis Center
Fri 02:21:29 PM 45.1883 -93.9603 95° East 541 623 39,000  Level Minneapolis Center
Fri 02:22:29 PM 45.1764 -93.7747 95° East 541 623 39,000  Level Minneapolis Center
Fri 02:23:29 PM 45.1622 -93.5656 103° East 541 623 39,000  Level Minneapolis Center
Fri 02:24:29 PM 45.1289 -93.3594 129° Southeast 541 623 39,000  Level Minneapolis Center
Fri 02:25:29 PM 45.0350 -93.1953 131° Southeast 522 601 39,000  Level Minneapolis Center
Fri 02:26:29 PM 44.9261 -93.0197 133° Southeast 533 613 39,000  Level Minneapolis Center
Fri 02:27:29 PM 44.8256 -92.8653 132° Southeast 538 619 39,000  Level Minneapolis Center
Fri 02:28:29 PM 44.7267 -92.7114 132° Southeast 538 619 39,000  Level Minneapolis Center
Fri 02:29:29 PM 44.6278 -92.5583 132° Southeast 538 619 39,000  Level Minneapolis Center
Fri 02:30:29 PM 44.5286 -92.4025 132° Southeast 538 619 39,000  Level Minneapolis Center
Fri 02:31:29 PM 44.4417 -92.2675 133° Southeast 538 619 39,000  Level Minneapolis Center
Fri 02:32:29 PM 44.3400 -92.1128 133° Southeast 538 619 39,000  Level Minneapolis Center
Fri 02:33:29 PM 44.2403 -91.9644 132° Southeast 532 612 39,000  Level Minneapolis Center
Fri 02:34:29 PM 44.1425 -91.8108 135° Southeast 537 618 39,000  Level Minneapolis Center
Fri 02:35:29 PM 44.0422 -91.6692 123° Southeast 532 612 39,000  Level Minneapolis Center
Fri 02:37:30 PM 43.8819 -91.3281 104° East 548 631 39,000  Level Chicago Center
Fri 02:38:30 PM 43.8456 -91.1311 105° East 543 625 39,000  Level Chicago Center
Fri 02:39:30 PM 43.8067 -90.9375 107° East 535 616 39,000  Level Chicago Center
Fri 02:40:30 PM 43.7594 -90.7178 106° East 530 610 39,000  Level Chicago Center
Fri 02:41:30 PM 43.7178 -90.5217 106° East 535 616 39,000  Level Chicago Center
Fri 02:42:30 PM 43.6781 -90.3256 110° East 535 616 39,000  Level Chicago Center
Fri 02:43:30 PM 43.6333 -90.1528 106° East 535 616 39,000  Level Chicago Center
Fri 02:44:30 PM 43.5931 -89.9575 108° East 530 610 39,000  Level Chicago Center
Fri 02:45:30 PM 43.5481 -89.7650 110° East 525 604 39,000  Level Chicago Center
Fri 02:46:30 PM 43.4964 -89.5731 112° Southeast 525 604 39,000  Level Chicago Center
Fri 02:47:30 PM 43.4425 -89.3897 112° Southeast 530 610 39,000  Level Chicago Center
Fri 02:48:30 PM 43.3883 -89.2014 112° Southeast 530 610 39,000  Level Chicago Center
Fri 02:49:30 PM 43.3336 -89.0131 113° Southeast 530 610 39,000  Level Chicago Center
Fri 02:50:30 PM 43.2767 -88.8253 112° Southeast 535 616 39,000  Level Chicago Center
Fri 02:51:30 PM 43.2214 -88.6406 112° Southeast 530 610 39,000  Level Chicago Center
Fri 02:52:30 PM 43.1597 -88.4333 127° Southeast 530 610 39,000  Level Chicago Center
Fri 02:53:30 PM 43.0750 -88.2783 162° South 523 602 39,000  Level Chicago Center
Fri 02:54:30 PM 42.9431 -88.2183 165° South 523 602 39,000  Level Chicago Center
Fri 02:55:30 PM 42.8050 -88.1669 165° South 523 602 39,000  Level Chicago Center
Fri 02:56:30 PM 42.6836 -88.1242 164° South 511 588 39,000  Level Chicago Center
Fri 02:57:30 PM 42.5433 -88.0706 165° South 505 581 39,000  Level Chicago Center
Fri 02:58:30 PM 42.4094 -88.0225 166° South 511 588 39,000  Level Chicago Center
Fri 02:59:30 PM 42.2733 -87.9750 161° South 511 588 39,000  Level Chicago Center
Fri 03:00:30 PM 42.1372 -87.9106 157° South 511 588 39,000  Level Chicago Center
Fri 03:01:30 PM 42.0092 -87.8381 158° South 516 594 39,000  Level Chicago Center
Fri 03:02:30 PM 41.8747 -87.7658 158° South 516 594 39,000  Level Chicago Center
Fri 03:03:30 PM 41.7422 -87.6942 158° South 516 594 39,000  Level Chicago Center
Fri 03:04:30 PM 41.6078 -87.6225 158° South 516 594 39,000  Level Chicago Center
Fri 03:05:30 PM 41.4756 -87.5514 158° South 516 594 39,000  Level Chicago Center
Fri 03:06:30 PM 41.3408 -87.4803 158° South 516 594 39,000  Level Chicago Center
Fri 03:07:30 PM 41.2064 -87.4097 159° South 516 594 39,000  Level Chicago Center
Fri 03:08:30 PM 41.0611 -87.3342 159° South 516 594 39,000  Level Chicago Center
Fri 03:09:30 PM 40.9264 -87.2642 158° South 516 594 39,000  Level Chicago Center
Fri 03:10:31 PM 40.7894 -87.1917 159° South 516 594 39,000  Level Chicago Center
Fri 03:11:30 PM 40.6653 -87.1272 157° South 524 603 39,000  Level Chicago Center
Fri 03:12:30 PM 40.5219 -87.0475 154° Southeast 519 597 39,000  Level Chicago Center
Fri 03:14:57 PM 40.1972 -86.8428 155° Southeast 529 609 39,000  Level Indianapolis Center
Fri 03:15:57 PM 40.0639 -86.7606 155° Southeast 523 602 39,000  Level Indianapolis Center
Fri 03:16:57 PM 39.9306 -86.6786 156° South 523 602 39,000  Level Indianapolis Center
Fri 03:17:57 PM 39.8011 -86.6028 155° Southeast 515 593 39,000  Level Indianapolis Center
Fri 03:18:57 PM 39.6697 -86.5242 154° Southeast 515 593 39,000 150 Level Indianapolis Center
Fri 03:19:57 PM 39.5406 -86.4433 154° Southeast 515 593 39,300 450 Climbing Indianapolis Center
Fri 03:20:57 PM 39.4089 -86.3600 154° Southeast 515 593 39,900 350 Climbing Indianapolis Center
Fri 03:21:57 PM 39.2753 -86.2769 155° Southeast 515 593 40,000 50 Climbing Indianapolis Center
Fri 03:22:57 PM 39.1436 -86.1969 159° South 521 600 40,000  Level Indianapolis Center
Fri 03:23:57 PM 39.0242 -86.1392 201° Southwest 521 600 40,000  Level Indianapolis Center
Fri 03:24:57 PM 38.9058 -86.1989 232° Southwest 455 524 40,000  Level Indianapolis Center
Fri 03:25:57 PM 38.8258 -86.3319 232° Southwest 445 512 40,000  Level Indianapolis Center
Fri 03:26:57 PM 38.7519 -86.4542 232° Southwest 445 512 40,000  Level Indianapolis Center
Fri 03:27:57 PM 38.6781 -86.5736 232° Southwest 445 512 40,000  Level Indianapolis Center
Fri 03:28:57 PM 38.6039 -86.6956 231° Southwest 440 506 40,000  Level Indianapolis Center
Fri 03:29:57 PM 38.5275 -86.8144 232° Southwest 434 499 40,000  Level Indianapolis Center
Fri 03:30:57 PM 38.4556 -86.9331 231° Southwest 434 499 40,000  Level Indianapolis Center
Fri 03:31:57 PM 38.3744 -87.0619 231° Southwest 449 517 40,000  Level Indianapolis Center
Fri 03:32:57 PM 38.2978 -87.1825 232° Southwest 456 525 40,000  Level Indianapolis Center
Fri 03:33:57 PM 38.2231 -87.3031 231° Southwest 449 517 40,000  Level Indianapolis Center
Fri 03:34:57 PM 38.1483 -87.4208 231° Southwest 449 517 40,000  Level Indianapolis Center
Fri 03:35:57 PM 38.0714 -87.5408 231° Southwest 449 517 40,000  Level Indianapolis Center
Fri 03:36:57 PM 37.9942 -87.6606 230° Southwest 449 517 40,000  Level Indianapolis Center
Fri 03:38:40 PM 37.8567 -87.8675 230° Southwest 458 527 40,000  Level Memphis Center
Fri 03:39:40 PM 37.7758 -87.9881 228° Southwest 452 520 40,000  Level Memphis Center
Fri 03:40:40 PM 37.6947 -88.1033 229° Southwest 452 520 40,000  Level Memphis Center
Fri 03:41:40 PM 37.6133 -88.2233 228° Southwest 452 520 40,000  Level Memphis Center
Fri 03:42:40 PM 37.5319 -88.3381 229° Southwest 447 514 40,000  Level Memphis Center
Fri 03:43:40 PM 37.4528 -88.4525 227° Southwest 447 514 40,000  Level Memphis Center
Fri 03:44:40 PM 37.3811 -88.5508 229° Southwest 442 509 40,000  Level Memphis Center
Fri 03:45:40 PM 37.3017 -88.6647 229° Southwest 442 509 40,000  Level Memphis Center
Fri 03:46:40 PM 37.2197 -88.7836 228° Southwest 442 509 40,000  Level Memphis Center
Fri 03:47:40 PM 37.1378 -88.8972 228° Southwest 442 509 40,000  Level Memphis Center
Fri 03:48:40 PM 37.0539 -89.0131 230° Southwest 442 509 40,000  Level Memphis Center
Fri 03:49:40 PM 36.9736 -89.1311 228° Southwest 447 514 40,000  Level Memphis Center
Fri 03:50:40 PM 36.8811 -89.2597 228° Southwest 455 524 40,000  Level Memphis Center
Fri 03:51:40 PM 36.7947 -89.3775 228° Southwest 455 524 40,000  Level Memphis Center
Fri 03:52:40 PM 36.7100 -89.4950 229° Southwest 455 524 40,000  Level Memphis Center
Fri 03:53:40 PM 36.6253 -89.6150 227° Southwest 455 524 40,000  Level Memphis Center
Fri 03:54:40 PM 36.5406 -89.7294 226° Southwest 455 524 40,000  Level Memphis Center
Fri 03:55:40 PM 36.4514 -89.8461 228° Southwest 460 529 40,000  Level Memphis Center
Fri 03:56:40 PM 36.3664 -89.9628 227° Southwest 460 529 40,000  Level Memphis Center
Fri 03:57:40 PM 36.2792 -90.0789 227° Southwest 460 529 40,000  Level Memphis Center
Fri 03:58:40 PM 36.1897 -90.1975 228° Southwest 466 536 40,000  Level Memphis Center
Fri 03:59:40 PM 36.1044 -90.3158 227° Southwest 466 536 40,000  Level Memphis Center
Fri 04:00:40 PM 36.0169 -90.4314 227° Southwest 466 536 40,000  Level Memphis Center
Fri 04:01:40 PM 35.9269 -90.5492 228° Southwest 466 536 40,000  Level Memphis Center
Fri 04:02:40 PM 35.8414 -90.6644 227° Southwest 466 536 40,000  Level Memphis Center
Fri 04:03:40 PM 35.7514 -90.7817 229° Southwest 466 536 40,000  Level Memphis Center
Fri 04:04:40 PM 35.6758 -90.8886 228° Southwest 466 536 40,000  Level Memphis Center
Fri 04:05:40 PM 35.5897 -91.0056 227° Southwest 466 536 40,000  Level Memphis Center
Fri 04:06:40 PM 35.4994 -91.1247 226° Southwest 466 536 40,000  Level Memphis Center
Fri 04:07:40 PM 35.4089 -91.2386 228° Southwest 466 536 40,000  Level Memphis Center
Fri 04:08:40 PM 35.3225 -91.3547 226° Southwest 466 536 40,000  Level Memphis Center
Fri 04:09:40 PM 35.2319 -91.4681 227° Southwest 471 542 40,000  Level Memphis Center
Fri 04:10:40 PM 35.1411 -91.5861 226° Southwest 471 542 40,000  Level Memphis Center
Fri 04:11:40 PM 35.0503 -91.7014 227° Southwest 471 542 40,000  Level Memphis Center
Fri 04:12:40 PM 34.9614 -91.8167 226° Southwest 471 542 40,000  Level Memphis Center
Fri 04:13:40 PM 34.8703 -91.9314 227° Southwest 471 542 40,000  Level Memphis Center
Fri 04:14:40 PM 34.7811 -92.0486 225° Southwest 476 548 40,000  Level Memphis Center
Fri 04:15:40 PM 34.6897 -92.1606 214° Southwest 476 548 40,000  Level Memphis Center
Fri 04:16:40 PM 34.5778 -92.2539 212° Southwest 477 549 40,000  Level Memphis Center
Fri 04:17:40 PM 34.4639 -92.3397 212° Southwest 487 560 40,000  Level Memphis Center
Fri 04:18:40 PM 34.3497 -92.4250 212° Southwest 492 566 40,000  Level Memphis Center
Fri 04:19:40 PM 34.2356 -92.5103 213° Southwest 492 566 40,000  Level Memphis Center
Fri 04:21:29 PM 34.0214 -92.6800 210° Southwest 481 554 40,000  Level Fort Worth Center
Fri 04:22:29 PM 33.9036 -92.7614 211° Southwest 481 554 40,000  Level Fort Worth Center
Fri 04:23:29 PM 33.7897 -92.8450 211° Southwest 481 554 40,000  Level Fort Worth Center
Fri 04:24:29 PM 33.6861 -92.9203 212° Southwest 481 554 40,000  Level Fort Worth Center
Fri 04:25:29 PM 33.5703 -93.0061 212° Southwest 481 554 40,000  Level Fort Worth Center
Fri 04:26:29 PM 33.4542 -93.0914 211° Southwest 481 554 40,000  Level Fort Worth Center
Fri 04:27:29 PM 33.3381 -93.1742 211° Southwest 481 554 40,000  Level Fort Worth Center
Fri 04:28:29 PM 33.2219 -93.2567 211° Southwest 481 554 40,000  Level Fort Worth Center
Fri 04:29:29 PM 33.1056 -93.3417 211° Southwest 481 554 40,000  Level Fort Worth Center
Fri 04:30:29 PM 32.9894 -93.4261 211° Southwest 481 554 40,000  Level Fort Worth Center
Fri 04:31:29 PM 32.8731 -93.5103 211° Southwest 481 554 40,000  Level Fort Worth Center
Fri 04:32:29 PM 32.7567 -93.5944 210° Southwest 481 554 40,000  Level Fort Worth Center
Fri 04:33:29 PM 32.6403 -93.6758 212° Southwest 487 560 40,000  Level Fort Worth Center
Fri 04:34:29 PM 32.5217 -93.7622 210° Southwest 487 560 40,000  Level Fort Worth Center
Fri 04:35:29 PM 32.4050 -93.8431 212° Southwest 487 560 40,000  Level Fort Worth Center
Fri 04:36:29 PM 32.2883 -93.9289 212° Southwest 487 560 40,000  Level Fort Worth Center
Fri 04:37:29 PM 32.1636 -94.0219 210° Southwest 487 560 40,000  Level Fort Worth Center
Fri 04:38:29 PM 32.0467 -94.1022 211° Southwest 487 560 40,000  Level Fort Worth Center
Fri 04:39:29 PM 31.9300 -94.1847 211° Southwest 487 560 40,000  Level Fort Worth Center
Fri 04:40:29 PM 31.8089 -94.2697 210° Southwest 497 572 40,000  Level Fort Worth Center
Fri 04:42:06 PM 31.6206 -94.3981 211° Southwest 496 571 40,000  Level Houston Center
Fri 04:43:06 PM 31.5022 -94.4800 211° Southwest 496 571 40,000  Level Houston Center
Fri 04:44:06 PM 31.3856 -94.5617 210° Southwest 502 578 40,000  Level Houston Center
Fri 04:45:06 PM 31.2842 -94.6292 211° Southwest 502 578 40,000  Level Houston Center
Fri 04:46:06 PM 31.1506 -94.7247 204° Southwest 520 598 40,000  Level Houston Center
Fri 04:47:06 PM 31.0175 -94.7933 204° Southwest 528 608 40,000  Level Houston Center
Fri 04:48:06 PM 30.8867 -94.8619 204° Southwest 514 592 40,000  Level Houston Center
Fri 04:49:06 PM 30.7575 -94.9303 204° Southwest 509 586 40,000  Level Houston Center
Fri 04:50:06 PM 30.6267 -94.9983 205° Southwest 514 592 40,000  Level Houston Center
Fri 04:51:06 PM 30.4956 -95.0686 204° Southwest 514 592 40,000  Level Houston Center
Fri 04:52:06 PM 30.3664 -95.1342 204° Southwest 514 592 40,000  Level Houston Center
Fri 04:53:06 PM 30.2353 -95.2017 204° Southwest 514 592 40,000  Level Houston Center
Fri 04:54:06 PM 30.1064 -95.2694 218° Southwest 514 592 40,000  Level Houston Center
Fri 04:55:06 PM 29.9972 -95.3686 262° West 514 592 40,000  Level Houston Center
Fri 04:56:06 PM 29.9808 -95.5072 282° West 437 503 40,000  Level Houston Center
Fri 04:57:06 PM 30.0058 -95.6494 281° West 412 474 40,000  Level Houston Center
Fri 04:58:06 PM 30.0308 -95.7919 279° West 437 503 40,000  Level Houston Center
Fri 04:59:06 PM 30.0514 -95.9367 282° West 449 517 40,000  Level Houston Center
Fri 05:00:06 PM 30.0761 -96.0769 280° West 449 517 40,000  Level Houston Center
Fri 05:01:06 PM 30.0983 -96.2219 281° West 449 517 40,000  Level Houston Center
Fri 05:02:06 PM 30.1208 -96.3619 277° West 449 517 40,000  Level Houston Center
Fri 05:03:06 PM 30.1361 -96.5164 279° West 443 510 40,000  Level Houston Center
Fri 05:04:06 PM 30.1561 -96.6589 282° West 448 516 40,000  Level Houston Center
Fri 05:05:06 PM 30.1803 -96.7922 279° West 448 516 40,000  Level Houston Center
Fri 05:06:06 PM 30.1997 -96.9372 282° West 448 516 40,000  Level Houston Center
Fri 05:07:06 PM 30.2236 -97.0706 278° West 436 502 40,000  Level Houston Center
Fri 05:08:06 PM 30.2406 -97.2181 281° West 451 519 40,000  Level Houston Center
Fri 05:09:06 PM 30.2606 -97.3417 279° West 442 509 40,000  Level Houston Center
Fri 05:10:06 PM 30.2794 -97.4847 280° West 442 509 40,000  Level Houston Center
Fri 05:11:06 PM 30.3006 -97.6228 280° West 442 509 40,000  Level Houston Center
Fri 05:12:06 PM 30.3214 -97.7633 279° West 446 513 40,000  Level Houston Center
Fri 05:13:06 PM 30.3417 -97.9161 279° West 446 513 40,000  Level Houston Center
Fri 05:14:06 PM 30.3600 -98.0567 281° West 452 520 40,000  Level Houston Center
Fri 05:15:06 PM 30.3828 -98.1953 279° West 446 513 40,000  Level Houston Center
Fri 05:16:06 PM 30.4008 -98.3336 279° West 446 513 40,000  Level Houston Center
Fri 05:17:06 PM 30.4192 -98.4719 279° West 446 513 40,000  Level Houston Center
Fri 05:18:06 PM 30.4372 -98.6078 280° West 441 507 40,000  Level Houston Center
Fri 05:19:06 PM 30.4572 -98.7464 278° West 441 507 40,000  Level Houston Center
Fri 05:20:06 PM 30.4747 -98.8872 279° West 436 502 40,000  Level Houston Center
Fri 05:21:06 PM 30.4911 -99.0089 280° West 436 502 40,000  Level Houston Center
Fri 05:22:06 PM 30.5139 -99.1597 278° West 431 496 40,000  Level Houston Center
Fri 05:23:06 PM 30.5314 -99.2983 280° West 431 496 40,000  Level Houston Center
Fri 05:24:06 PM 30.5528 -99.4347 277° West 431 496 40,000  Level Houston Center
Fri 05:25:06 PM 30.5675 -99.5731 280° West 431 496 40,000  Level Houston Center
Fri 05:26:06 PM 30.5883 -99.7144 278° West 431 496 40,000  Level Houston Center
Fri 05:27:06 PM 30.6050 -99.8533 278° West 431 496 40,000  Level Houston Center
Fri 05:28:06 PM 30.6217 -99.9919 278° West 431 496 40,000  Level Houston Center
Fri 05:29:06 PM 30.6397 -100.1333 278° West 431 496 40,000  Level Houston Center
Fri 05:30:06 PM 30.6561 -100.2694 278° West 431 496 40,000  Level Houston Center
Fri 05:31:06 PM 30.6722 -100.4108 279° West 431 496 40,000  Level Houston Center
Fri 05:32:06 PM 30.6889 -100.5375 276° West 437 503 40,000  Level Houston Center
Fri 05:33:06 PM 30.7025 -100.6786 278° West 437 503 40,000  Level Houston Center
Fri 05:34:06 PM 30.7200 -100.8175 278° West 437 503 40,000  Level Houston Center
Fri 05:35:06 PM 30.7358 -100.9517 277° West 431 496 40,000  Level Houston Center
Fri 05:36:06 PM 30.7511 -101.0931 278° West 431 496 40,000  Level Houston Center
Fri 05:37:06 PM 30.7681 -101.2369 277° West 436 502 40,000  Level Houston Center
Fri 05:38:06 PM 30.7833 -101.3733 277° West 436 502 40,000  Level Houston Center
Fri 05:39:06 PM 30.7981 -101.5122 276° West 436 502 40,000  Level Houston Center
Fri 05:40:06 PM 30.8111 -101.6486 277° West 434 499 40,000  Level Houston Center
Fri 05:41:06 PM 30.8256 -101.7900 277° West 434 499 40,000  Level Houston Center
Fri 05:43:31 PM 30.8608 -102.1294 278° West 441 507 40,000  Level Albuquerque Center
Fri 05:44:31 PM 30.8772 -102.2711 277° West 441 507 40,000  Level Albuquerque Center
Fri 05:45:31 PM 30.8917 -102.4153 276° West 446 513 40,000  Level Albuquerque Center
Fri 05:46:31 PM 30.9039 -102.5594 278° West 446 513 40,000  Level Albuquerque Center
Fri 05:47:31 PM 30.9219 -102.7011 276° West 446 513 40,000  Level Albuquerque Center
Fri 05:48:31 PM 30.9358 -102.8456 279° West 446 513 40,000  Level Albuquerque Center
Fri 05:49:31 PM 30.9561 -102.9992 287° West 450 518 40,000  Level Albuquerque Center
Fri 05:50:31 PM 30.9919 -103.1328 288° West 445 512 40,000  Level Albuquerque Center
Fri 05:51:31 PM 31.0303 -103.2714 288° West 445 512 40,000  Level Albuquerque Center
Fri 05:52:31 PM 31.0681 -103.4078 288° West 445 512 40,000  Level Albuquerque Center
Fri 05:53:31 PM 31.1058 -103.5417 287° West 445 512 40,000  Level Albuquerque Center
Fri 05:54:31 PM 31.1411 -103.6758 289° West 445 512 40,000  Level Albuquerque Center
Fri 05:55:31 PM 31.1806 -103.8075 288° West 440 506 40,000  Level Albuquerque Center
Fri 05:56:31 PM 31.2178 -103.9442 287° West 434 499 40,000  Level Albuquerque Center
Fri 05:57:31 PM 31.2528 -104.0786 288° West 434 499 40,000  Level Albuquerque Center
Fri 05:58:31 PM 31.2900 -104.2156 288° West 434 499 40,000  Level Albuquerque Center
Fri 05:59:31 PM 31.3267 -104.3503 287° West 434 499 40,000  Level Albuquerque Center
Fri 06:00:31 PM 31.3633 -104.4875 286° West 439 505 40,000  Level Albuquerque Center
Fri 06:01:32 PM 31.3978 -104.6247 288° West 439 505 40,000  Level Albuquerque Center
Fri 06:02:31 PM 31.4342 -104.7597 287° West 439 505 40,000  Level Albuquerque Center
Fri 06:03:31 PM 31.4661 -104.8853 287° West 439 505 40,000  Level Albuquerque Center
Fri 06:04:31 PM 31.5022 -105.0231 287° West 439 505 40,000  Level Albuquerque Center
Fri 06:05:31 PM 31.5381 -105.1633 286° West 439 505 40,000  Level Albuquerque Center
Fri 06:06:31 PM 31.5719 -105.3011 287° West 444 511 40,000  Level Albuquerque Center
Fri 06:07:31 PM 31.6075 -105.4417 287° West 444 511 40,000  Level Albuquerque Center
Fri 06:08:31 PM 31.6431 -105.5772 286° West 444 511 40,000  Level Albuquerque Center
Fri 06:09:31 PM 31.6764 -105.7156 287° West 444 511 40,000  Level Albuquerque Center
Fri 06:10:31 PM 31.7136 -105.8589 286° West 449 517 40,000  Level Albuquerque Center
Fri 06:11:31 PM 31.7464 -105.9950 287° West 449 517 40,000  Level Albuquerque Center
Fri 06:12:31 PM 31.7814 -106.1311 286° West 449 517 40,000  Level Albuquerque Center
Fri 06:13:31 PM 31.8139 -106.2672 308° West 444 511 40,000  Level Albuquerque Center
Fri 06:14:31 PM 31.8878 -106.3786 312° West 433 498 40,000  Level Albuquerque Center
Fri 06:15:31 PM 31.9742 -106.4903 312° West 426 490 40,000  Level Albuquerque Center
Fri 06:16:31 PM 32.0542 -106.5947 312° West 426 490 40,000  Level Albuquerque Center
Fri 06:17:31 PM 32.1339 -106.6994 311° West 431 496 40,000  Level Albuquerque Center
Fri 06:18:31 PM 32.2139 -106.8067 312° West 431 496 40,000  Level Albuquerque Center
Fri 06:19:31 PM 32.2933 -106.9119 311° West 431 496 40,000  Level Albuquerque Center
Fri 06:20:31 PM 32.3689 -107.0147 312° West 431 496 40,000  Level Albuquerque Center
Fri 06:21:31 PM 32.4317 -107.0981 312° West 425 489 40,000  Level Albuquerque Center
Fri 06:22:31 PM 32.5217 -107.2158 311° West 434 499 40,000  Level Albuquerque Center
Fri 06:23:31 PM 32.6050 -107.3292 312° West 441 507 40,000  Level Albuquerque Center
Fri 06:24:31 PM 32.6822 -107.4325 311° West 436 502 40,000  Level Albuquerque Center
Fri 06:25:31 PM 32.7614 -107.5414 312° West 431 496 40,000  Level Albuquerque Center
Fri 06:26:31 PM 32.8403 -107.6453 311° West 431 496 40,000  Level Albuquerque Center
Fri 06:27:31 PM 32.9172 -107.7519 311° West 431 496 40,000  Level Albuquerque Center
Fri 06:28:31 PM 32.9961 -107.8586 311° West 431 496 40,000  Level Albuquerque Center
Fri 06:29:31 PM 33.0728 -107.9656 312° West 426 490 40,000  Level Albuquerque Center
Fri 06:30:31 PM 33.1536 -108.0728 311° West 426 490 40,000  Level Albuquerque Center
Fri 06:31:31 PM 33.2383 -108.1878 312° West 426 490 40,000  Level Albuquerque Center
Fri 06:32:31 PM 33.3169 -108.2928 311° West 426 490 40,000  Level Albuquerque Center
Fri 06:33:31 PM 33.3975 -108.4031 310° West 431 496 40,000  Level Albuquerque Center
Fri 06:34:31 PM 33.4736 -108.5136 311° West 431 496 40,000  Level Albuquerque Center
Fri 06:35:31 PM 33.5456 -108.6117 310° West 431 496 40,000  Level Albuquerque Center
Fri 06:36:31 PM 33.6217 -108.7203 312° West 431 496 40,000  Level Albuquerque Center
Fri 06:37:31 PM 33.7017 -108.8289 310° West 431 496 40,000  Level Albuquerque Center
Fri 06:38:31 PM 33.7794 -108.9400 311° West 431 496 40,000  Level Albuquerque Center
Fri 06:39:31 PM 33.8572 -109.0492 310° West 431 496 40,000  Level Albuquerque Center
Fri 06:40:31 PM 33.9350 -109.1608 310° West 436 502 40,000  Level Albuquerque Center
Fri 06:41:31 PM 34.0125 -109.2728 311° West 436 502 40,000  Level Albuquerque Center
Fri 06:42:31 PM 34.0922 -109.3850 309° West 436 502 40,000  Level Albuquerque Center
Fri 06:43:31 PM 34.1672 -109.4972 311° West 429 494 40,000  Level Albuquerque Center
Fri 06:44:31 PM 34.2528 -109.6175 310° West 434 499 40,000  Level Albuquerque Center
Fri 06:45:31 PM 34.3319 -109.7303 309° West 434 499 40,000  Level Albuquerque Center
Fri 06:46:31 PM 34.4008 -109.8331 311° West 439 505 40,000  Level Albuquerque Center
Fri 06:47:31 PM 34.4778 -109.9411 309° West 439 505 40,000  Level Albuquerque Center
Fri 06:48:31 PM 34.5647 -110.0700 310° West 439 505 40,000  Level Albuquerque Center
Fri 06:49:31 PM 34.6414 -110.1811 310° West 439 505 40,000  Level Albuquerque Center
Fri 06:50:31 PM 34.7119 -110.2819 310° West 439 505 40,000  Level Albuquerque Center
Fri 06:51:31 PM 34.7906 -110.3961 310° West 439 505 40,000  Level Albuquerque Center
Fri 06:52:31 PM 34.8772 -110.5208 310° West 439 505 40,000  Level Albuquerque Center
Fri 06:53:31 PM 34.9533 -110.6328 307° West 434 499 40,000  Level Albuquerque Center
Fri 06:54:31 PM 35.0214 -110.7419 273° West 440 506 40,000  Level Albuquerque Center
Fri 06:55:31 PM 35.0272 -110.8944 240° Southwest 407 468 40,000 -600 Level Albuquerque Center
Fri 06:56:31 PM 34.9650 -111.0236 241° Southwest 407 468 38,800 -1,300 Descending Albuquerque Center
Fri 06:57:31 PM 34.9067 -111.1528 242° Southwest 432 497 37,400 -1,400 Descending Albuquerque Center
Fri 06:58:31 PM 34.8525 -111.2792 242° Southwest 432 497 36,000 -700 Descending Albuquerque Center
Fri 06:59:31 PM 34.8053 -111.3856 239° Southwest 420 483 36,000 -500 Level Albuquerque Center
Fri 07:00:31 PM 34.7403 -111.5164 242° Southwest 414 476 35,000 -1,000 Descending Albuquerque Center
Fri 07:01:31 PM 34.6858 -111.6400 241° Southwest 414 476 34,000 -1,000 Descending Albuquerque Center
Fri 07:02:31 PM 34.6314 -111.7608 220° Southwest 409 471 33,000 -1,050 Descending Albuquerque Center
Fri 07:03:31 PM 34.5489 -111.8447 192° South 402 463 31,900 -1,500 Descending Albuquerque Center
Fri 07:04:31 PM 34.4394 -111.8739 194° South 387 445 30,000 -2,550 Descending Albuquerque Center
Fri 07:05:31 PM 34.3317 -111.9058 163° South 394 453 26,800 -3,900 Descending Albuquerque Center
Fri 07:06:31 PM 34.2228 -111.8644 105° East 394 453 22,200 -3,950 Descending Albuquerque Center
Fri 07:07:31 PM 34.1978 -111.7503 37° Northeast 367 422 18,900 -3,350 Descending Albuquerque Center
Fri 07:08:31 PM 34.2819 -111.6742 319° Northwest 324 373 15,500 -2,800 Descending Albuquerque Center
Fri 07:09:31 PM 34.3522 -111.7483 255° West 283 326 13,300 -1,900 Descending Albuquerque Center
Fri 07:10:31 PM 34.3297 -111.8503 207° Southwest 239 275 11,700 -1,000 Descending Albuquerque Center
Fri 07:11:31 PM 34.2550 -111.8964 198° South 239 275 11,300 -350 Descending Albuquerque Center
Fri 07:12:31 PM 34.1828 -111.9250 180° South 283 326 11,000 -250 Descending Albuquerque Center
Fri 07:13:31 PM 34.1014 -111.9256 150° Southeast 303 349 10,800 -750 Descending Albuquerque Center
Fri 07:14:31 PM 34.0322 -111.8767 149° Southeast 291 335 9,500 -1,350 Descending Albuquerque Center
Fri 07:15:31 PM 33.9653 -111.8281 149° Southeast 286 329 8,100 -898 Descending Albuquerque Center
Fri 07:17:18 PM 33.8333 -111.7333 132° Southeast 276 318 7,000 -393 Descending Phoenix TRACON
Fri 07:18:19 PM 33.7833 -111.6667 148° Southeast 277 319 7,000  Level Phoenix TRACON
Fri 07:19:19 PM 33.7167 -111.6167 132° Southeast 273 314 7,000  Level Phoenix TRACON
Fri 07:20:19 PM 33.6667 -111.5500 148° Southeast 275 316 7,000  Level Phoenix TRACON
Fri 07:21:13 PM 33.6000 -111.5000 148° Southeast 272 313 7,000  Level Phoenix TRACON
Fri 07:22:19 PM 33.5333 -111.4500 180° South 277 319 7,000  Level Phoenix TRACON
Fri 07:23:19 PM 33.4667 -111.4500 171° South 274 315 7,000  Level Phoenix TRACON
Fri 07:24:20 PM 33.3833 -111.4333 192° South 273 314 7,000 -198 Level Phoenix TRACON
Fri 07:25:20 PM 33.3167 -111.4500 220° Southwest 241 277 6,600 -750 Descending Phoenix TRACON
Fri 07:26:20 PM 33.2667 -111.5000 220° Southwest 207 238 5,500 -1,400 Descending Phoenix TRACON
Fri 07:27:20 PM 33.2333 -111.5333 292° West 179 206 3,800 -1,276 Descending Phoenix TRACON
Fri 07:28:27 PM 33.2500 -111.5833 320° Northwest 136 157 2,800 -945 Descending Phoenix TRACON
Fri 07:29:27 PM 33.2833 -111.6167 320° Northwest 144 166 1,800 -1,000 Descending Phoenix TRACON

Login

Don't have an account? Register now (free) for customized features, flight alerts, and more!